^^
Station Historical Data
 
Daily Summary for December 12, 2017 Units:  English    Metric   Both
« Previous Day
Next Day »
Daily Weekly Monthly Yearly Custom
  Current: High: Low: Average:
Temperature: 42.3 °F 42.3 °F 39.6 °F 40.8 °F
Dew Point: 36.3 °F 36.6 °F 34.7 °F 35.3 °F
Humidity: 79% 83% 77% 81%
Wind Speed: 4.1mph 4.1mph 0.0mph 1.9mph
Wind Gust: 8.1mph 8.1mph - -
WindWSW - - SW
Pressure: 29.72 in 29.83 in 29.72 in -
Precipitation: 0.00 in      
Historical Graphs
 
 
Tabular Data for December 12, 2017
Time Temperature Dew Point Pressure Wind Wind Speed Wind Gust Humidity Rainfall Rate (Hourly) solar Conditions
00:16 41.6 °F 34.9 °F 29.83 in SW 2.6 mph 4.0 mph 77% 0.00 in 0.0 W/m2 CLR
00:21 41.5 °F 35.2 °F 29.83 in SSW 2.0 mph 4.6 mph 78% 0.00 in 0.0 W/m2 CLR
00:31 41.2 °F 34.9 °F 29.82 in West 2.3 mph 4.0 mph 78% 0.00 in 0.0 W/m2 CLR
00:36 41.0 °F 35.0 °F 29.82 in SW 1.7 mph 4.6 mph 79% 0.00 in 0.0 W/m2 CLR
00:41 41.0 °F 35.0 °F 29.82 in SSW 1.2 mph 3.5 mph 79% 0.00 in 0.0 W/m2 CLR
00:46 40.9 °F 34.9 °F 29.82 in WSW 2.5 mph 3.5 mph 79% 0.00 in 0.0 W/m2 CLR
00:51 40.9 °F 35.2 °F 29.82 in SW 2.7 mph 5.8 mph 80% 0.00 in 0.0 W/m2 CLR
01:01 41.0 °F 35.3 °F 29.82 in SSW 2.9 mph 4.6 mph 80% 0.00 in 0.0 W/m2 CLR
01:06 41.0 °F 35.3 °F 29.82 in SW 0.3 mph 2.3 mph 80% 0.00 in 0.0 W/m2 CLR
01:11 40.9 °F 35.2 °F 29.81 in SSW 1.4 mph 3.5 mph 80% 0.00 in 0.0 W/m2 CLR
01:16 40.9 °F 35.2 °F 29.80 in SSW 1.2 mph 3.5 mph 80% 0.00 in 0.0 W/m2 CLR
01:21 41.0 °F 35.3 °F 29.80 in SSW 0.6 mph 2.3 mph 80% 0.00 in 0.0 W/m2 CLR
01:26 40.9 °F 35.2 °F 29.80 in Calm     80% 0.00 in 0.0 W/m2 CLR
01:31 40.9 °F 35.2 °F 29.80 in Calm     80% 0.00 in 0.0 W/m2 CLR
01:36 40.8 °F 35.1 °F 29.80 in Calm     80% 0.00 in 0.0 W/m2 CLR
01:41 40.8 °F 35.1 °F 29.80 in Calm     80% 0.00 in 0.0 W/m2 CLR
01:46 40.7 °F 35.0 °F 29.80 in SW 0.1 mph 1.0 mph 80% 0.00 in 0.0 W/m2 CLR
01:56 40.4 °F 35.0 °F 29.79 in SW 1.3 mph 2.3 mph 81% 0.00 in 0.0 W/m2 CLR
02:01 40.2 °F 34.8 °F 29.79 in SW 2.8 mph 3.5 mph 81% 0.00 in 0.0 W/m2 CLR
02:06 40.1 °F 34.7 °F 29.78 in SSW 0.8 mph 2.3 mph 81% 0.00 in 0.0 W/m2 CLR
02:16 40.0 °F 34.9 °F 29.78 in SSW 1.0 mph 3.5 mph 82% 0.00 in 0.0 W/m2 CLR
02:21 39.8 °F 34.8 °F 29.78 in SSW 2.7 mph 3.5 mph 82% 0.00 in 0.0 W/m2 CLR
02:26 39.7 °F 34.7 °F 29.78 in SSW 1.6 mph 3.5 mph 82% 0.00 in 0.0 W/m2 CLR
02:31 39.7 °F 34.7 °F 29.77 in SSW 1.6 mph 3.5 mph 82% 0.00 in 0.0 W/m2 CLR
02:36 39.6 °F 34.9 °F 29.77 in SSW 2.1 mph 3.5 mph 83% 0.00 in 0.0 W/m2 CLR
02:41 39.6 °F 34.9 °F 29.77 in SSW 2.6 mph 4.0 mph 83% 0.00 in 0.0 W/m2 CLR
02:52 39.7 °F 35.0 °F 29.76 in WSW 1.3 mph 3.5 mph 83% 0.00 in 0.0 W/m2 CLR
03:02 39.7 °F 35.0 °F 29.76 in SW 1.1 mph 3.5 mph 83% 0.00 in 0.0 W/m2 CLR
03:12 39.7 °F 35.0 °F 29.76 in SW 0.1 mph 2.3 mph 83% 0.00 in 0.0 W/m2 CLR
03:17 39.7 °F 35.0 °F 29.75 in SW 0.7 mph 2.3 mph 83% 0.00 in 0.0 W/m2 CLR
03:22 39.8 °F 35.1 °F 29.75 in SW 2.0 mph 3.5 mph 83% 0.00 in 0.0 W/m2 CLR
03:32 39.8 °F 35.1 °F 29.75 in SSW 2.7 mph 4.6 mph 83% 0.00 in 0.0 W/m2 CLR
03:37 39.9 °F 35.2 °F 29.75 in SW 3.3 mph 5.8 mph 83% 0.00 in 0.0 W/m2 CLR
03:42 40.0 °F 35.3 °F 29.75 in WSW 1.7 mph 5.0 mph 83% 0.00 in 0.0 W/m2 CLR
03:52 40.4 °F 35.6 °F 29.75 in SSW 2.9 mph 3.5 mph 83% 0.00 in 0.0 W/m2 CLR
03:57 40.6 °F 35.5 °F 29.74 in SW 3.4 mph 5.0 mph 82% 0.00 in 0.0 W/m2 CLR
04:02 40.8 °F 35.7 °F 29.74 in SW 3.2 mph 4.6 mph 82% 0.00 in 0.0 W/m2 CLR
04:17 41.3 °F 35.9 °F 29.73 in WSW 2.0 mph 4.0 mph 81% 0.00 in 0.0 W/m2 CLR
04:22 41.4 °F 36.0 °F 29.74 in SW 2.8 mph 4.6 mph 81% 0.00 in 0.0 W/m2 CLR
04:37 41.7 °F 36.0 °F 29.73 in West 3.1 mph 5.8 mph 80% 0.00 in 0.0 W/m2 CLR
04:42 41.8 °F 36.1 °F 29.73 in WSW 3.1 mph 4.6 mph 80% 0.00 in 0.0 W/m2 CLR
04:57 42.1 °F 36.4 °F 29.73 in WSW 2.5 mph 4.6 mph 80% 0.00 in 0.0 W/m2 CLR
05:02 42.1 °F 36.4 °F 29.73 in SW 2.5 mph 3.5 mph 80% 0.00 in 0.0 W/m2 CLR
05:07 42.2 °F 36.2 °F 29.72 in SW 3.5 mph 6.9 mph 79% 0.00 in 0.0 W/m2 CLR
05:12 42.3 °F 36.3 °F 29.72 in WSW 3.0 mph 5.0 mph 79% 0.00 in 0.0 W/m2 CLR
05:17 42.3 °F 36.6 °F 29.72 in SW 0.8 mph 4.0 mph 80% 0.00 in 0.0 W/m2 CLR
05:22 42.3 °F 36.3 °F 29.72 in WSW 4.1 mph 8.1 mph 79% 0.00 in 0.0 W/m2 CLR
Mint Hill, North Carolina, USA
Compliments of Weather Underground - 1.5 mb